createdAt,value
2023-06-07T00:02:13.787Z,100201.41
2023-06-07T00:04:43.471Z,100198.66
2023-06-07T00:07:11.738Z,100198.81
2023-06-07T00:09:38.211Z,100204.34
2023-06-07T00:12:07.848Z,100194.66
2023-06-07T00:14:34.200Z,100195.53
2023-06-07T00:17:00.508Z,100198.13
2023-06-07T00:19:27.586Z,100199.84
2023-06-07T00:21:54.034Z,100192.84
2023-06-07T00:24:21.309Z,100197.41
2023-06-07T00:26:47.940Z,100193.94
2023-06-07T00:29:17.464Z,100197.47
2023-06-07T00:31:43.780Z,100191.19
2023-06-07T00:34:10.429Z,100181.41
2023-06-07T00:36:36.889Z,100187.00
2023-06-07T00:39:06.155Z,100179.06
2023-06-07T00:41:32.607Z,100190.78
2023-06-07T00:43:58.858Z,100186.31
2023-06-07T00:46:28.978Z,100185.44
2023-06-07T00:48:57.900Z,100173.88
2023-06-07T00:51:27.223Z,100175.44
2023-06-07T00:53:54.323Z,100182.44
2023-06-07T00:56:20.772Z,100166.13
2023-06-07T00:58:47.705Z,100171.25
2023-06-07T01:01:14.143Z,100172.03
2023-06-07T01:03:41.011Z,100178.97
2023-06-07T01:06:07.607Z,100177.13
2023-06-07T01:08:34.167Z,100181.56
2023-06-07T01:11:02.738Z,100173.59
2023-06-07T01:13:30.838Z,100172.91
2023-06-07T01:15:57.355Z,100164.94
2023-06-07T01:18:25.561Z,100172.03
2023-06-07T01:20:56.489Z,100171.03
2023-06-07T01:23:36.075Z,100169.09
2023-06-07T01:26:03.294Z,100170.91
2023-06-07T01:28:34.856Z,100164.78
2023-06-07T01:31:02.430Z,100174.81
2023-06-07T01:33:30.993Z,100167.78
2023-06-07T01:35:59.097Z,100162.59
2023-06-07T01:38:28.772Z,100165.28
2023-06-07T01:40:55.970Z,100165.34
2023-06-07T01:43:22.986Z,100150.25
2023-06-07T01:45:51.060Z,100151.16
2023-06-07T01:48:17.639Z,100148.56
2023-06-07T01:50:43.954Z,100157.63
2023-06-07T01:53:10.839Z,100155.97
2023-06-07T01:55:38.244Z,100156.16
2023-06-07T01:58:10.581Z,100150.03
2023-06-07T02:00:49.576Z,100143.88
2023-06-07T02:03:20.908Z,100147.41
2023-06-07T02:05:53.915Z,100144.72
2023-06-07T02:08:40.013Z,100141.28
2023-06-07T02:11:07.673Z,100138.75
2023-06-07T02:13:36.616Z,100136.31
2023-06-07T02:16:06.508Z,100141.91
2023-06-07T02:18:38.142Z,100141.28
2023-06-07T02:21:04.747Z,100147.81
2023-06-07T02:23:31.137Z,100145.28
2023-06-07T02:25:57.440Z,100150.72
2023-06-07T02:28:23.753Z,100151.66
2023-06-07T02:30:50.152Z,100149.22
2023-06-07T02:33:17.172Z,100151.09
2023-06-07T02:35:46.743Z,100150.31
2023-06-07T02:38:13.622Z,100148.66
2023-06-07T02:40:40.213Z,100153.22
2023-06-07T02:43:06.589Z,100140.94
2023-06-07T02:45:32.961Z,100141.13
2023-06-07T02:47:59.423Z,100144.66
2023-06-07T02:50:25.878Z,100139.66
2023-06-07T02:52:53.013Z,100146.97
2023-06-07T02:55:19.467Z,100147.06
2023-06-07T02:57:45.744Z,100143.50
2023-06-07T03:00:12.651Z,100149.81
2023-06-07T03:02:39.516Z,100148.94
2023-06-07T03:05:06.919Z,100143.75
2023-06-07T03:07:36.225Z,100148.47
2023-06-07T03:10:04.107Z,100149.53
2023-06-07T03:12:30.714Z,100150.53
2023-06-07T03:14:57.048Z,100152.66
2023-06-07T03:17:23.585Z,100150.09
2023-06-07T03:19:50.664Z,100150.28
2023-06-07T03:22:18.023Z,100155.69
2023-06-07T03:24:44.366Z,100161.09
2023-06-07T03:27:10.730Z,100159.38
2023-06-07T03:29:37.098Z,100162.97
2023-06-07T03:32:03.577Z,100161.25
2023-06-07T03:34:30.888Z,100158.72
2023-06-07T03:36:57.423Z,100160.69
2023-06-07T03:39:23.681Z,100149.91
2023-06-07T03:41:50.011Z,100161.38
2023-06-07T03:44:16.330Z,100160.53
2023-06-07T03:46:43.261Z,100165.88
2023-06-07T03:49:09.657Z,100161.38
2023-06-07T03:51:38.394Z,100165.81
2023-06-07T03:54:04.812Z,100165.88
2023-06-07T03:56:31.110Z,100168.91
2023-06-07T03:58:58.184Z,100172.81
2023-06-07T04:01:26.910Z,100174.97
2023-06-07T04:03:53.592Z,100175.94
2023-06-07T04:06:25.173Z,100180.47
2023-06-07T04:08:53.362Z,100175.19
2023-06-07T04:11:20.241Z,100169.78
2023-06-07T04:13:46.569Z,100180.31
2023-06-07T04:16:12.966Z,100174.81
2023-06-07T04:18:39.341Z,100179.97
2023-06-07T04:21:06.859Z,100169.13
2023-06-07T04:23:33.292Z,100173.44
2023-06-07T04:26:00.724Z,100169.91
2023-06-07T04:28:28.615Z,100172.53
2023-06-07T04:30:58.089Z,100171.66
2023-06-07T04:33:24.755Z,100169.84
2023-06-07T04:35:51.546Z,100175.03
2023-06-07T04:38:23.352Z,100176.56
2023-06-07T04:40:51.129Z,100175.41
2023-06-07T04:43:21.407Z,100162.75
2023-06-07T04:45:55.592Z,100168.88
2023-06-07T04:48:27.010Z,100170.41
2023-06-07T04:51:06.313Z,100165.69
2023-06-07T04:53:37.072Z,100166.50
2023-06-07T04:56:04.820Z,100166.28
2023-06-07T04:58:32.578Z,100170.59
2023-06-07T05:00:59.000Z,100175.69
2023-06-07T05:03:25.829Z,100168.47
2023-06-07T05:05:53.147Z,100171.78
2023-06-07T05:08:19.643Z,100173.22
2023-06-07T05:10:46.594Z,100174.63
2023-06-07T05:13:12.919Z,100172.50
2023-06-07T05:15:40.559Z,100169.59
2023-06-07T05:18:08.393Z,100171.19
2023-06-07T05:20:34.994Z,100170.06
2023-06-07T05:23:01.298Z,100170.81
2023-06-07T05:25:27.659Z,100166.84
2023-06-07T05:28:08.133Z,100168.34
2023-06-07T05:30:39.823Z,100164.41
2023-06-07T05:33:07.477Z,100166.88
2023-06-07T05:35:33.981Z,100164.88
2023-06-07T05:38:00.504Z,100175.81
2023-06-07T05:40:26.831Z,100166.66
2023-06-07T05:42:54.297Z,100170.44
2023-06-07T05:45:22.003Z,100169.13
2023-06-07T05:47:49.307Z,100172.94
2023-06-07T05:50:16.178Z,100172.28
2023-06-07T05:52:42.656Z,100171.41
2023-06-07T05:55:09.132Z,100167.72
2023-06-07T05:57:36.369Z,100163.03
2023-06-07T06:00:06.123Z,100170.81
2023-06-07T06:02:32.972Z,100171.34
2023-06-07T06:04:59.566Z,100170.25
2023-06-07T06:07:26.096Z,100173.72
2023-06-07T06:09:52.597Z,100176.44
2023-06-07T06:12:19.086Z,100172.94
2023-06-07T06:14:45.584Z,100174.66
2023-06-07T06:17:12.091Z,100161.25
2023-06-07T06:19:38.585Z,100161.34
2023-06-07T06:22:04.949Z,100159.13
2023-06-07T06:24:31.415Z,100163.28
2023-06-07T06:26:57.903Z,100160.97
2023-06-07T06:29:26.400Z,100162.38
2023-06-07T06:31:52.750Z,100163.91
2023-06-07T06:34:19.930Z,100166.41
2023-06-07T06:36:46.982Z,100167.94
2023-06-07T06:39:13.764Z,100166.56
2023-06-07T06:41:40.226Z,100171.38
2023-06-07T06:44:06.615Z,100165.53
2023-06-07T06:46:33.026Z,100163.44
2023-06-07T06:49:11.310Z,100171.19
2023-06-07T06:51:38.876Z,100167.16
2023-06-07T06:54:05.949Z,100176.97
2023-06-07T06:56:32.386Z,100173.22
2023-06-07T06:58:58.726Z,100173.47
2023-06-07T07:01:25.103Z,100172.66
2023-06-07T07:03:52.102Z,100176.22
2023-06-07T07:06:19.501Z,100167.72
2023-06-07T07:08:46.014Z,100169.78
2023-06-07T07:11:12.731Z,100176.28
2023-06-07T07:13:39.157Z,100168.19
2023-06-07T07:16:05.942Z,100167.16
2023-06-07T07:18:32.388Z,100171.34
2023-06-07T07:20:58.935Z,100167.03
2023-06-07T07:23:25.336Z,100178.97
2023-06-07T07:25:51.793Z,100173.59
2023-06-07T07:28:18.486Z,100170.31
2023-06-07T07:30:44.840Z,100174.41
2023-06-07T07:33:11.293Z,100172.44
2023-06-07T07:35:37.740Z,100179.97
2023-06-07T07:38:06.300Z,100168.19
2023-06-07T07:40:32.656Z,100177.47
2023-06-07T07:42:59.350Z,100176.81
2023-06-07T07:45:26.401Z,100182.66
2023-06-07T07:47:52.826Z,100191.97
2023-06-07T07:50:19.227Z,100186.59
2023-06-07T07:52:45.571Z,100186.97
2023-06-07T07:55:12.276Z,100189.22
2023-06-07T07:57:38.677Z,100187.84
2023-06-07T08:00:07.220Z,100179.81
2023-06-07T08:02:33.933Z,100181.63
2023-06-07T08:05:00.327Z,100184.31
2023-06-07T08:07:26.690Z,100192.28
2023-06-07T08:09:53.102Z,100192.66
2023-06-07T08:12:19.507Z,100195.25
2023-06-07T08:14:46.093Z,100195.59
2023-06-07T08:17:12.522Z,100189.34
2023-06-07T08:19:38.948Z,100190.03
2023-06-07T08:22:05.734Z,100181.78
2023-06-07T08:24:32.268Z,100187.31
2023-06-07T08:26:58.973Z,100185.88
2023-06-07T08:29:26.619Z,100189.19
2023-06-07T08:31:54.577Z,100189.53
2023-06-07T08:34:27.782Z,100191.53
2023-06-07T08:36:55.035Z,100183.38
2023-06-07T08:39:22.024Z,100184.31
2023-06-07T08:41:48.414Z,100185.13
2023-06-07T08:44:14.771Z,100182.34
2023-06-07T08:46:42.927Z,100177.72
2023-06-07T08:49:11.912Z,100172.25
2023-06-07T08:51:42.408Z,100159.19
2023-06-07T08:54:11.455Z,100169.03
2023-06-07T08:56:39.749Z,100172.47
2023-06-07T08:59:06.786Z,100172.31
2023-06-07T09:01:37.362Z,100173.44
2023-06-07T09:04:04.320Z,100167.31
2023-06-07T09:06:30.768Z,100170.44
2023-06-07T09:08:57.698Z,100167.03
2023-06-07T09:11:24.137Z,100167.56
2023-06-07T09:13:50.806Z,100156.44
2023-06-07T09:16:18.244Z,100168.53
2023-06-07T09:18:55.155Z,100165.59
2023-06-07T09:21:29.416Z,100166.84
2023-06-07T09:24:01.486Z,100167.97
2023-06-07T09:26:39.676Z,100164.41
2023-06-07T09:29:10.604Z,100169.66
2023-06-07T09:31:38.709Z,100175.91
2023-06-07T09:34:25.671Z,100165.88
2023-06-07T09:36:57.758Z,100178.44
2023-06-07T09:39:26.288Z,100169.47
2023-06-07T09:41:53.890Z,100182.28
2023-06-07T09:44:29.873Z,100172.78
2023-06-07T09:46:57.584Z,100167.56
2023-06-07T09:49:28.449Z,100165.88
2023-06-07T09:51:55.398Z,100164.31
2023-06-07T09:54:37.626Z,100166.31
2023-06-07T09:57:10.836Z,100174.94
2023-06-07T09:59:38.606Z,100168.28
2023-06-07T10:02:25.749Z,100179.25
2023-06-07T10:04:57.367Z,100168.81
2023-06-07T10:07:28.576Z,100169.34
2023-06-07T10:09:58.645Z,100169.97
2023-06-07T10:12:29.972Z,100173.72
2023-06-07T10:14:59.733Z,100165.53
2023-06-07T10:17:34.592Z,100159.81
2023-06-07T10:20:03.714Z,100161.31
2023-06-07T10:22:38.882Z,100158.88
2023-06-07T10:25:17.508Z,100158.69
2023-06-07T10:27:49.949Z,100152.97
2023-06-07T10:30:17.359Z,100158.09
2023-06-07T10:32:45.383Z,100154.00
2023-06-07T10:35:15.711Z,100145.28
2023-06-07T10:37:43.867Z,100154.09
2023-06-07T10:40:11.785Z,100155.38
2023-06-07T10:42:42.557Z,100154.41
2023-06-07T10:45:15.970Z,100144.44
2023-06-07T10:47:43.152Z,100163.91
2023-06-07T10:50:31.257Z,100155.16
2023-06-07T10:52:59.526Z,100153.50
2023-06-07T10:55:28.243Z,100146.03
2023-06-07T10:57:55.416Z,100150.13
2023-06-07T11:00:26.840Z,100155.72
2023-06-07T11:03:22.620Z,100154.44
2023-06-07T11:05:55.219Z,100150.59
2023-06-07T11:08:22.878Z,100141.78
2023-06-07T11:10:49.323Z,100140.88
2023-06-07T11:13:15.831Z,100145.13
2023-06-07T11:15:42.412Z,100134.56
2023-06-07T11:18:14.944Z,100134.47
2023-06-07T11:20:44.690Z,100127.13
2023-06-07T11:23:31.513Z,100131.41
2023-06-07T11:26:09.803Z,100128.44
2023-06-07T11:28:40.769Z,100131.81
2023-06-07T11:31:12.646Z,100124.94
2023-06-07T11:33:41.910Z,100123.59
2023-06-07T11:36:10.484Z,100106.72
2023-06-07T11:38:38.418Z,100116.16
2023-06-07T11:41:06.186Z,100111.38
2023-06-07T11:43:32.855Z,100112.91
2023-06-07T11:45:59.599Z,100112.09
2023-06-07T11:48:30.420Z,100104.81
2023-06-07T11:50:57.878Z,100105.81
2023-06-07T11:53:24.725Z,100103.22
2023-06-07T11:55:51.230Z,100098.72
2023-06-07T11:58:17.673Z,100092.91
2023-06-07T12:00:47.746Z,100092.66
2023-06-07T12:03:14.853Z,100099.31
2023-06-07T12:05:41.475Z,100095.81
2023-06-07T12:08:16.368Z,100080.09
2023-06-07T12:10:42.753Z,100085.34
2023-06-07T12:13:23.034Z,100083.28
2023-06-07T12:15:53.295Z,100080.09
2023-06-07T12:18:23.770Z,100050.97
2023-06-07T12:21:05.689Z,100068.63
2023-06-07T12:23:32.834Z,100073.16
2023-06-07T12:26:08.116Z,100065.91
2023-06-07T12:28:34.862Z,100063.53
2023-06-07T12:31:01.266Z,100056.56
2023-06-07T12:33:28.581Z,100063.13
2023-06-07T12:36:01.739Z,100054.19
2023-06-07T12:38:28.323Z,100050.47
2023-06-07T12:40:54.741Z,100058.06
2023-06-07T12:43:21.198Z,100052.66
2023-06-07T12:45:47.640Z,100053.03
2023-06-07T12:48:14.029Z,100049.47
2023-06-07T12:50:40.437Z,100056.81
2023-06-07T12:53:07.092Z,100056.69
2023-06-07T12:55:33.510Z,100037.22
2023-06-07T12:58:00.447Z,100033.97
2023-06-07T13:00:26.988Z,100026.56
2023-06-07T13:02:53.633Z,100019.50
2023-06-07T13:05:20.407Z,100018.06
2023-06-07T13:07:47.047Z,100012.03
2023-06-07T13:10:13.940Z,100005.88
2023-06-07T13:12:40.824Z,100006.13
2023-06-07T13:15:07.925Z,100011.28
2023-06-07T13:17:35.503Z,100007.59
2023-06-07T13:20:02.243Z,100011.16
2023-06-07T13:22:31.898Z,99995.00
2023-06-07T13:24:58.774Z,99998.97
2023-06-07T13:27:27.766Z,99998.84
2023-06-07T13:29:54.680Z,99993.28
2023-06-07T13:32:21.194Z,99991.97
2023-06-07T13:34:47.676Z,99985.94
2023-06-07T13:37:14.066Z,99990.56
2023-06-07T13:39:40.640Z,99984.88
2023-06-07T13:42:07.600Z,99988.97
2023-06-07T13:44:34.463Z,99984.03
2023-06-07T13:47:01.940Z,99984.81
2023-06-07T13:49:28.467Z,99986.06
2023-06-07T13:51:55.089Z,99978.25
2023-06-07T13:54:21.406Z,99979.66
2023-06-07T13:56:47.798Z,99983.06
2023-06-07T13:59:14.919Z,99981.56
2023-06-07T14:01:41.429Z,99980.34
2023-06-07T14:04:08.588Z,99976.28
2023-06-07T14:06:35.498Z,99953.50
2023-06-07T14:09:02.060Z,99953.53
2023-06-07T14:11:28.568Z,99953.41
2023-06-07T14:13:54.900Z,99944.75
2023-06-07T14:16:21.912Z,99960.19
2023-06-07T14:18:48.954Z,99951.13
2023-06-07T14:21:15.785Z,99938.78
2023-06-07T14:23:42.842Z,99936.97
2023-06-07T14:26:09.752Z,99938.44
2023-06-07T14:28:36.290Z,99930.56
2023-06-07T14:31:02.863Z,99932.44
2023-06-07T14:33:29.271Z,99935.22
2023-06-07T14:35:55.612Z,99927.59
2023-06-07T14:38:22.003Z,99935.25
2023-06-07T14:40:48.442Z,99928.19
2023-06-07T14:43:14.767Z,99920.03
2023-06-07T14:45:41.141Z,99942.44
2023-06-07T14:48:07.525Z,99922.56
2023-06-07T14:50:34.930Z,99925.03
2023-06-07T14:53:01.685Z,99927.88
2023-06-07T14:55:28.119Z,99920.34
2023-06-07T14:57:54.855Z,99922.13
2023-06-07T15:00:21.777Z,99913.53
2023-06-07T15:02:48.207Z,99910.41
2023-06-07T15:05:14.917Z,99903.41
2023-06-07T15:07:41.276Z,99910.47
2023-06-07T15:10:08.315Z,99905.34
2023-06-07T15:12:34.873Z,99909.44
2023-06-07T15:15:01.289Z,99905.63
2023-06-07T15:17:27.711Z,99904.16
2023-06-07T15:19:54.452Z,99897.34
2023-06-07T15:22:20.965Z,99905.88
2023-06-07T15:24:50.277Z,99899.75
2023-06-07T15:27:16.663Z,99906.09
2023-06-07T15:29:43.120Z,99901.69
2023-06-07T15:32:09.642Z,99899.47
2023-06-07T15:34:36.040Z,99905.16
2023-06-07T15:37:02.519Z,99900.91
2023-06-07T15:39:28.882Z,99906.56
2023-06-07T15:41:55.332Z,99906.31
2023-06-07T15:44:21.899Z,99910.50
2023-06-07T15:46:49.161Z,99908.44
2023-06-07T15:49:18.034Z,99898.88
2023-06-07T15:51:44.537Z,99906.28
2023-06-07T15:54:10.958Z,99896.44
2023-06-07T15:56:37.816Z,99893.50
2023-06-07T15:59:04.211Z,99896.91
2023-06-07T16:01:30.767Z,99892.44
2023-06-07T16:03:57.352Z,99881.56
2023-06-07T16:06:24.031Z,99885.38
2023-06-07T16:08:51.264Z,99889.22
2023-06-07T16:11:17.711Z,99881.78
2023-06-07T16:13:44.044Z,99885.44
2023-06-07T16:16:10.406Z,99884.31
2023-06-07T16:18:37.824Z,99877.56
2023-06-07T16:21:04.191Z,99887.38
2023-06-07T16:23:30.626Z,99885.44
2023-06-07T16:25:57.035Z,99884.38
2023-06-07T16:28:23.484Z,99894.66
2023-06-07T16:30:49.869Z,99880.44
2023-06-07T16:33:16.310Z,99883.78
2023-06-07T16:35:43.674Z,99878.09
2023-06-07T16:38:10.065Z,99885.88
2023-06-07T16:40:36.419Z,99883.81
2023-06-07T16:43:02.782Z,99889.97
2023-06-07T16:45:29.234Z,99888.25
2023-06-07T16:47:55.687Z,99881.13
2023-06-07T16:50:22.069Z,99896.31
2023-06-07T16:52:48.527Z,99889.31
2023-06-07T16:55:14.978Z,99898.03
2023-06-07T16:57:41.344Z,99888.31
2023-06-07T17:00:08.594Z,99888.16
2023-06-07T17:02:35.262Z,99883.16
2023-06-07T17:05:01.801Z,99870.69
2023-06-07T17:07:28.124Z,99891.53
2023-06-07T17:09:54.533Z,99885.25
2023-06-07T17:12:21.048Z,99883.28
2023-06-07T17:14:49.572Z,99880.03
2023-06-07T17:17:16.454Z,99869.19
2023-06-07T17:19:43.507Z,99876.72
2023-06-07T17:22:10.087Z,99874.84
2023-06-07T17:24:37.034Z,99877.25
2023-06-07T17:27:06.403Z,99876.41
2023-06-07T17:29:32.781Z,99870.97
2023-06-07T17:31:59.246Z,99880.00
2023-06-07T17:34:25.819Z,99877.25
2023-06-07T17:36:52.669Z,99883.28
2023-06-07T17:39:20.957Z,99889.84
2023-06-07T17:41:47.294Z,99880.28
2023-06-07T17:44:13.613Z,99887.00
2023-06-07T17:46:40.104Z,99885.56
2023-06-07T17:49:06.471Z,99887.84
2023-06-07T17:51:33.271Z,99892.13
2023-06-07T17:54:01.575Z,99893.56
2023-06-07T17:56:28.716Z,99887.72
2023-06-07T17:58:56.265Z,99890.88
2023-06-07T18:01:23.620Z,99895.88
2023-06-07T18:03:51.802Z,99891.72
2023-06-07T18:06:22.388Z,99900.72
2023-06-07T18:08:48.758Z,99905.31
2023-06-07T18:11:15.420Z,99911.03
2023-06-07T18:13:41.885Z,99901.59
2023-06-07T18:16:08.293Z,99904.03
2023-06-07T18:18:35.289Z,99908.16
2023-06-07T18:21:01.872Z,99911.31
2023-06-07T18:23:28.424Z,99913.63
2023-06-07T18:25:54.873Z,99906.44
2023-06-07T18:28:21.259Z,99909.75
2023-06-07T18:30:47.786Z,99908.53
2023-06-07T18:33:14.175Z,99911.94
2023-06-07T18:35:40.568Z,99905.50
2023-06-07T18:38:06.968Z,99910.38
2023-06-07T18:40:33.575Z,99910.03
2023-06-07T18:42:59.930Z,99915.75
2023-06-07T18:45:26.954Z,99911.44
2023-06-07T18:47:53.533Z,99908.41
2023-06-07T18:50:21.080Z,99914.50
2023-06-07T18:52:47.566Z,99901.06
2023-06-07T18:55:14.015Z,99909.50
2023-06-07T18:57:40.789Z,99903.84
2023-06-07T19:00:07.918Z,99905.66
2023-06-07T19:02:34.536Z,99905.47
2023-06-07T19:05:01.088Z,99910.41
2023-06-07T19:07:27.499Z,99908.25
2023-06-07T19:09:53.918Z,99903.75
2023-06-07T19:12:20.528Z,99891.28
2023-06-07T19:14:46.972Z,99906.41
2023-06-07T19:17:14.123Z,99899.47
2023-06-07T19:19:40.576Z,99915.13
2023-06-07T19:22:09.935Z,99919.41
2023-06-07T19:24:43.414Z,99913.81
2023-06-07T19:27:11.263Z,99912.47
2023-06-07T19:29:38.914Z,99921.00
2023-06-07T19:32:07.845Z,99922.81
2023-06-07T19:34:36.010Z,99919.66
2023-06-07T19:37:03.059Z,99921.63
2023-06-07T19:39:29.718Z,99923.34
2023-06-07T19:42:00.994Z,99928.28
2023-06-07T19:44:28.009Z,99935.41
2023-06-07T19:46:54.891Z,99928.66
2023-06-07T19:49:21.489Z,99936.91
2023-06-07T19:51:47.870Z,99939.88
2023-06-07T19:54:14.327Z,99935.69
2023-06-07T19:56:40.686Z,99936.19
2023-06-07T19:59:07.612Z,99938.41
2023-06-07T20:01:34.229Z,99941.50
2023-06-07T20:04:00.988Z,99943.72
2023-06-07T20:06:27.401Z,99927.63
2023-06-07T20:08:54.257Z,99930.31
2023-06-07T20:11:21.958Z,99938.66
2023-06-07T20:13:48.464Z,99934.50
2023-06-07T20:16:14.840Z,99941.00
2023-06-07T20:18:41.910Z,99921.38
2023-06-07T20:21:08.289Z,99923.34
2023-06-07T20:23:34.628Z,99921.97
2023-06-07T20:26:01.181Z,99918.06
2023-06-07T20:28:27.541Z,99932.03
2023-06-07T20:30:53.912Z,99929.59
2023-06-07T20:33:20.293Z,99925.91
2023-06-07T20:35:46.622Z,99929.59
2023-06-07T20:38:12.983Z,99922.84
2023-06-07T20:40:39.380Z,99920.50
2023-06-07T20:43:05.803Z,99939.91
2023-06-07T20:45:32.171Z,99933.16
2023-06-07T20:47:58.542Z,99939.03
2023-06-07T20:50:25.042Z,99932.53
2023-06-07T20:52:51.591Z,99938.16
2023-06-07T20:55:17.944Z,99944.66
2023-06-07T20:57:44.280Z,99930.78
2023-06-07T21:00:11.764Z,99945.50
2023-06-07T21:02:38.524Z,99944.94
2023-06-07T21:05:05.367Z,99956.38
2023-06-07T21:07:31.732Z,99956.69
2023-06-07T21:09:58.080Z,99955.34
2023-06-07T21:12:24.394Z,99953.34
2023-06-07T21:14:52.240Z,99954.69
2023-06-07T21:17:18.617Z,99956.25
2023-06-07T21:19:45.139Z,99958.66
2023-06-07T21:22:11.473Z,99958.25
2023-06-07T21:24:37.801Z,99954.69
2023-06-07T21:27:04.501Z,99965.19
2023-06-07T21:29:30.854Z,99963.81
2023-06-07T21:31:57.295Z,99943.66
2023-06-07T21:34:23.621Z,99967.72
2023-06-07T21:36:50.231Z,99963.63
2023-06-07T21:39:16.653Z,99962.38
2023-06-07T21:41:43.085Z,99963.91
2023-06-07T21:44:09.716Z,99950.34
2023-06-07T21:46:36.124Z,99967.34
2023-06-07T21:49:02.578Z,99948.41
2023-06-07T21:51:28.990Z,99968.25
2023-06-07T21:53:55.483Z,99966.00
2023-06-07T21:56:21.951Z,99949.22
2023-06-07T21:58:48.281Z,99952.22
2023-06-07T22:01:14.857Z,99950.06
2023-06-07T22:03:41.263Z,99959.97
2023-06-07T22:06:07.616Z,99958.16
2023-06-07T22:08:33.953Z,99958.38
2023-06-07T22:11:00.356Z,99963.84
2023-06-07T22:13:26.730Z,99954.28
2023-06-07T22:15:53.093Z,99959.28
2023-06-07T22:18:20.384Z,99957.03
2023-06-07T22:20:47.892Z,99950.88
2023-06-07T22:23:14.543Z,99943.22
2023-06-07T22:25:41.968Z,99929.75
2023-06-07T22:28:10.684Z,99943.66
2023-06-07T22:30:40.133Z,99952.47
2023-06-07T22:33:08.616Z,99935.81
2023-06-07T22:35:35.865Z,99946.16
2023-06-07T22:38:06.180Z,99933.13
2023-06-07T22:40:34.273Z,99946.03
2023-06-07T22:43:01.459Z,99935.72
2023-06-07T22:45:29.353Z,99937.31
2023-06-07T22:48:10.523Z,99943.47
2023-06-07T22:50:38.526Z,99943.56
2023-06-07T22:53:06.544Z,99947.09
2023-06-07T22:55:33.811Z,99928.25
2023-06-07T22:58:01.745Z,99940.53
2023-06-07T23:00:29.225Z,99945.16
2023-06-07T23:02:58.394Z,99944.50
2023-06-07T23:05:28.212Z,99947.84
2023-06-07T23:07:56.529Z,99951.63
2023-06-07T23:10:35.677Z,99950.00
2023-06-07T23:13:08.886Z,99949.44
2023-06-07T23:15:37.097Z,99939.00
2023-06-07T23:18:03.882Z,99939.66
2023-06-07T23:20:33.657Z,99950.59
2023-06-07T23:23:03.817Z,99943.72
2023-06-07T23:25:30.948Z,99945.44
2023-06-07T23:27:58.270Z,99942.75
2023-06-07T23:30:24.654Z,99944.69
2023-06-07T23:32:51.032Z,99947.56
2023-06-07T23:35:17.400Z,99944.13
2023-06-07T23:37:43.702Z,99934.25
2023-06-07T23:40:10.784Z,99931.00
2023-06-07T23:42:37.137Z,99934.34
2023-06-07T23:45:04.437Z,99932.72
2023-06-07T23:47:31.187Z,99919.13
2023-06-07T23:49:57.596Z,99925.16
2023-06-07T23:52:23.925Z,99916.56
2023-06-07T23:54:50.291Z,99924.63
2023-06-07T23:57:16.827Z,99918.59
2023-06-07T23:59:43.179Z,99920.50
